createdAt,value
2017-01-26T00:00:20.431Z,82.41
2017-01-26T00:01:02.111Z,82.5
2017-01-26T00:01:43.685Z,82.22
2017-01-26T00:02:25.425Z,82.41
2017-01-26T00:03:07.206Z,82.22
2017-01-26T00:03:48.797Z,82.31
2017-01-26T00:04:30.325Z,82.31
2017-01-26T00:06:45.616Z,82.5
2017-01-26T00:09:06.090Z,82.5
2017-01-26T00:09:47.809Z,82.41
2017-01-26T00:12:08.491Z,82.31
2017-01-26T00:12:50.082Z,82.41
2017-01-26T00:13:31.532Z,82.03
2017-01-26T00:15:26.208Z,82.22
2017-01-26T00:17:41.509Z,82.31
2017-01-26T00:18:23.219Z,82.12
2017-01-26T00:19:04.917Z,82.31
2017-01-26T00:19:46.611Z,82.12
2017-01-26T00:20:28.324Z,82.31
2017-01-26T00:21:10.075Z,82.69
2017-01-26T00:21:51.763Z,82.88
2017-01-26T00:22:33.437Z,82.88
2017-01-26T00:23:15.074Z,82.69
2017-01-26T00:23:56.740Z,82.69
2017-01-26T00:24:38.441Z,82.88
2017-01-26T00:25:20.133Z,82.88
2017-01-26T00:26:01.892Z,82.6
2017-01-26T00:28:22.425Z,82.69
2017-01-26T00:29:04.028Z,82.88
2017-01-26T00:31:04.185Z,82.5
2017-01-26T00:31:45.846Z,82.79
2017-01-26T00:32:27.516Z,82.69
2017-01-26T00:33:09.222Z,82.88
2017-01-26T00:33:51.033Z,82.5
2017-01-26T00:34:32.769Z,82.69
2017-01-26T00:35:14.490Z,82.79
2017-01-26T00:35:56.253Z,82.79
2017-01-26T00:36:37.872Z,82.5
2017-01-26T00:37:19.599Z,82.6
2017-01-26T00:39:19.768Z,83.17
2017-01-26T00:40:01.524Z,83.17
2017-01-26T00:40:43.256Z,83.36
2017-01-26T00:42:32.576Z,83.36
2017-01-26T00:43:14.322Z,82.88
2017-01-26T00:45:03.411Z,83.07
2017-01-26T00:45:44.822Z,83.07
2017-01-26T00:46:26.483Z,83.07
2017-01-26T00:47:08.120Z,83.17
2017-01-26T00:47:49.709Z,83.17
2017-01-26T00:48:31.352Z,83.17
2017-01-26T00:49:12.948Z,83.17
2017-01-26T00:51:28.312Z,83.17
2017-01-26T00:53:23.101Z,83.36
2017-01-26T00:54:04.819Z,83.36
2017-01-26T00:54:46.643Z,82.98
2017-01-26T00:55:28.320Z,83.07
2017-01-26T00:56:09.983Z,83.36
2017-01-26T00:56:51.620Z,83.36
2017-01-26T00:59:12.409Z,83.36
2017-01-26T01:01:12.470Z,83.54
2017-01-26T01:01:54.116Z,82.98
2017-01-26T01:02:35.783Z,83.17
2017-01-26T01:03:17.224Z,83.5
2017-01-26T01:03:58.894Z,83.36
2017-01-26T01:04:41.029Z,83.45
2017-01-26T01:05:22.650Z,83.36
2017-01-26T01:06:04.486Z,83.07
2017-01-26T01:06:45.950Z,83.26
2017-01-26T01:07:27.690Z,83.36
2017-01-26T01:08:09.507Z,83.17
2017-01-26T01:08:51.218Z,83.36
2017-01-26T01:09:33.020Z,83.36
2017-01-26T01:10:14.681Z,83.54
2017-01-26T01:10:56.416Z,83.54
2017-01-26T01:11:38.153Z,83.26
2017-01-26T01:12:19.834Z,83.69
2017-01-26T01:14:09.240Z,83.45
2017-01-26T01:14:50.932Z,83.54
2017-01-26T01:15:32.722Z,83.45
2017-01-26T01:16:14.402Z,83.97
2017-01-26T01:16:55.931Z,83.78
2017-01-26T01:17:37.561Z,83.92
2017-01-26T01:18:19.332Z,83.69
2017-01-26T01:20:14.106Z,83.83
2017-01-26T01:20:55.896Z,83.78
2017-01-26T01:21:37.517Z,83.59
2017-01-26T01:22:19.281Z,83.31
2017-01-26T01:23:00.901Z,83.4
2017-01-26T01:24:55.652Z,84.3
2017-01-26T01:25:37.186Z,83.97
2017-01-26T01:27:26.637Z,84.16
2017-01-26T01:28:08.440Z,83.97
2017-01-26T01:28:50.225Z,84.2
2017-01-26T01:29:31.913Z,84.3
2017-01-26T01:30:13.575Z,84.2
2017-01-26T01:30:55.293Z,84.26
2017-01-26T01:32:49.882Z,84.16
2017-01-26T01:33:31.592Z,84.16
2017-01-26T01:34:13.184Z,84.16
2017-01-26T01:34:54.914Z,83.88
2017-01-26T01:35:36.679Z,84.07
2017-01-26T01:36:18.420Z,83.97
2017-01-26T01:37:00.157Z,84.16
2017-01-26T01:37:41.857Z,84.07
2017-01-26T01:38:23.617Z,84.01
2017-01-26T01:39:05.322Z,83.88
2017-01-26T01:39:46.960Z,84.2
2017-01-26T01:40:28.675Z,83.92
2017-01-26T01:41:10.335Z,83.97
2017-01-26T01:41:52.007Z,83.97
2017-01-26T01:42:33.684Z,84.07
2017-01-26T01:43:15.453Z,84.07
2017-01-26T01:43:57.190Z,84.16
2017-01-26T01:44:38.876Z,83.78
2017-01-26T01:45:20.602Z,83.97
2017-01-26T01:46:02.212Z,83.97
2017-01-26T01:47:56.798Z,84.35
2017-01-26T01:49:46.221Z,83.97
2017-01-26T01:50:27.997Z,84.35
2017-01-26T01:51:11.168Z,83.97
2017-01-26T01:51:52.887Z,83.88
2017-01-26T01:52:34.408Z,83.88
2017-01-26T01:53:16.170Z,83.69
2017-01-26T01:53:57.826Z,83.88
2017-01-26T01:56:18.516Z,83.69
2017-01-26T01:57:00.031Z,84.26
2017-01-26T01:59:20.663Z,84.35
2017-01-26T02:00:01.330Z,84.82
2017-01-26T02:00:41.848Z,84.73
2017-01-26T02:01:22.378Z,84.64
2017-01-26T02:02:02.901Z,84.45
2017-01-26T02:02:43.436Z,84.35
2017-01-26T02:03:23.945Z,84.45
2017-01-26T02:04:04.476Z,84.54
2017-01-26T02:04:45.007Z,84.54
2017-01-26T02:05:25.539Z,84.64
2017-01-26T02:06:06.057Z,84.54
2017-01-26T02:06:46.599Z,84.58
2017-01-26T02:07:27.112Z,84.45
2017-01-26T02:08:07.649Z,84.64
2017-01-26T02:08:48.181Z,84.45
2017-01-26T02:09:28.708Z,84.35
2017-01-26T02:10:09.238Z,84.35
2017-01-26T02:10:49.807Z,84.45
2017-01-26T02:11:30.317Z,84.58
2017-01-26T02:12:10.842Z,84.54
2017-01-26T02:12:51.372Z,84.35
2017-01-26T02:13:31.902Z,84.35
2017-01-26T02:14:12.429Z,84.35
2017-01-26T02:14:52.957Z,84.35
2017-01-26T02:15:33.487Z,84.35
2017-01-26T02:16:14.019Z,84.35
2017-01-26T02:16:54.539Z,84.45
2017-01-26T02:17:35.067Z,84.45
2017-01-26T02:18:15.602Z,84.35
2017-01-26T02:18:56.113Z,84.35
2017-01-26T02:19:36.643Z,84.54
2017-01-26T02:20:17.174Z,84.45
2017-01-26T02:20:57.702Z,84.45
2017-01-26T02:21:38.236Z,84.45
2017-01-26T02:22:18.765Z,84.45
2017-01-26T02:22:59.323Z,84.35
2017-01-26T02:23:39.847Z,84.45
2017-01-26T02:24:20.383Z,84.45
2017-01-26T02:25:00.909Z,84.07
2017-01-26T02:25:41.444Z,84.16
2017-01-26T02:26:21.975Z,84.35
2017-01-26T02:27:02.499Z,84.35
2017-01-26T02:27:43.032Z,84.45
2017-01-26T02:28:23.552Z,84.45
2017-01-26T02:29:04.085Z,84.07
2017-01-26T02:29:44.603Z,84.35
2017-01-26T02:30:25.135Z,84.35
2017-01-26T02:31:05.670Z,84.16
2017-01-26T02:31:46.208Z,84.07
2017-01-26T02:32:26.737Z,84.54
2017-01-26T02:33:07.256Z,84.64
2017-01-26T02:33:47.782Z,84.35
2017-01-26T02:34:28.310Z,84.64
2017-01-26T02:35:08.847Z,84.26
2017-01-26T02:35:49.382Z,84.26
2017-01-26T02:36:29.900Z,84.26
2017-01-26T02:37:10.435Z,84.35
2017-01-26T02:37:50.962Z,84.35
2017-01-26T02:38:31.491Z,84.54
2017-01-26T02:39:12.023Z,84.35
2017-01-26T02:39:52.551Z,84.26
2017-01-26T02:40:33.079Z,84.26
2017-01-26T02:41:13.617Z,84.16
2017-01-26T02:41:54.158Z,84.54
2017-01-26T02:42:34.682Z,84.16
2017-01-26T02:43:15.203Z,84.54
2017-01-26T02:43:55.742Z,84.26
2017-01-26T02:44:36.260Z,84.45
2017-01-26T02:45:16.778Z,84.35
2017-01-26T02:45:57.293Z,84.45
2017-01-26T02:46:37.827Z,84.07
2017-01-26T02:47:18.356Z,84.35
2017-01-26T02:47:58.877Z,84.54
2017-01-26T02:48:39.407Z,84.54
2017-01-26T02:49:19.934Z,84.45
2017-01-26T02:50:00.461Z,84.54
2017-01-26T02:50:40.998Z,84.35
2017-01-26T02:51:21.516Z,84.45
2017-01-26T02:52:02.048Z,84.64
2017-01-26T02:52:42.578Z,84.54
2017-01-26T02:53:23.115Z,84.35
2017-01-26T02:54:03.639Z,84.35
2017-01-26T02:54:44.170Z,84.64
2017-01-26T02:55:24.701Z,84.54
2017-01-26T02:56:05.227Z,84.54
2017-01-26T02:56:45.751Z,84.45
2017-01-26T02:57:26.284Z,84.64
2017-01-26T02:58:06.796Z,84.54
2017-01-26T02:58:47.350Z,84.73
2017-01-26T02:59:27.851Z,84.35
2017-01-26T03:00:08.371Z,84.26
2017-01-26T03:00:48.897Z,84.54
2017-01-26T03:01:29.423Z,84.54
2017-01-26T03:02:09.958Z,84.54
2017-01-26T03:02:50.471Z,84.45
2017-01-26T03:03:30.993Z,84.35
2017-01-26T03:04:11.525Z,84.07
2017-01-26T03:04:52.037Z,84.35
2017-01-26T03:05:32.565Z,84.07
2017-01-26T03:06:13.086Z,84.16
2017-01-26T03:06:53.640Z,84.54
2017-01-26T03:07:34.174Z,84.54
2017-01-26T03:08:14.693Z,84.35
2017-01-26T03:08:55.216Z,84.35
2017-01-26T03:09:35.746Z,84.45
2017-01-26T03:10:16.282Z,84.35
2017-01-26T03:10:56.798Z,84.45
2017-01-26T03:11:37.323Z,84.35
2017-01-26T03:12:17.868Z,84.82
2017-01-26T03:12:58.398Z,84.82
2017-01-26T03:13:38.921Z,84.82
2017-01-26T03:14:19.457Z,84.54
2017-01-26T03:14:59.985Z,84.64
2017-01-26T03:15:40.516Z,84.35
2017-01-26T03:16:21.048Z,84.82
2017-01-26T03:17:01.574Z,84.82
2017-01-26T03:17:42.080Z,84.82
2017-01-26T03:18:22.611Z,84.64
2017-01-26T03:19:03.123Z,84.82
2017-01-26T03:19:43.643Z,84.35
2017-01-26T03:20:24.183Z,84.54
2017-01-26T03:21:04.708Z,84.64
2017-01-26T03:21:45.241Z,84.35
2017-01-26T03:22:25.763Z,84.35
2017-01-26T03:23:06.288Z,84.54
2017-01-26T03:23:46.810Z,84.64
2017-01-26T03:24:27.331Z,84.64
2017-01-26T03:25:07.866Z,84.64
2017-01-26T03:25:48.393Z,84.64
2017-01-26T03:26:28.923Z,84.73
2017-01-26T03:27:09.445Z,84.82
2017-01-26T03:27:49.979Z,84.73
2017-01-26T03:28:30.514Z,84.73
2017-01-26T03:29:11.048Z,84.64
2017-01-26T03:29:51.572Z,84.64
2017-01-26T03:30:32.102Z,84.45
2017-01-26T03:31:12.635Z,85.01
2017-01-26T03:31:53.152Z,84.54
2017-01-26T03:32:33.696Z,84.45
2017-01-26T03:33:14.225Z,84.26
2017-01-26T03:33:54.746Z,84.45
2017-01-26T03:34:35.286Z,84.45
2017-01-26T03:35:15.803Z,84.45
2017-01-26T03:35:56.352Z,84.35
2017-01-26T03:36:36.868Z,84.64
2017-01-26T03:37:17.415Z,84.64
2017-01-26T03:37:57.947Z,84.64
2017-01-26T03:38:38.462Z,85.01
2017-01-26T03:39:18.992Z,84.73
2017-01-26T03:39:59.528Z,84.82
2017-01-26T03:40:40.055Z,84.54
2017-01-26T03:41:20.594Z,84.82
2017-01-26T03:42:01.128Z,84.45
2017-01-26T03:42:41.659Z,84.35
2017-01-26T03:43:22.180Z,84.35
2017-01-26T03:44:02.716Z,84.54
2017-01-26T03:44:43.270Z,84.54
2017-01-26T03:45:23.767Z,84.54
2017-01-26T03:46:04.289Z,84.82
2017-01-26T03:46:44.813Z,84.82
2017-01-26T03:47:25.342Z,84.54
2017-01-26T03:48:05.860Z,84.82
2017-01-26T03:48:46.410Z,84.64
2017-01-26T03:49:26.949Z,84.54
2017-01-26T03:50:07.477Z,84.64
2017-01-26T03:50:48.006Z,84.54
2017-01-26T03:51:28.540Z,84.16
2017-01-26T03:52:09.062Z,84.45
2017-01-26T03:52:49.585Z,84.35
2017-01-26T03:53:30.122Z,84.26
2017-01-26T03:54:10.651Z,84.45
2017-01-26T03:54:51.184Z,84.45
2017-01-26T03:55:31.692Z,84.35
2017-01-26T03:56:12.258Z,84.35
2017-01-26T03:56:52.768Z,84.45
2017-01-26T03:57:33.300Z,84.45
2017-01-26T03:58:13.829Z,84.45
2017-01-26T03:58:54.376Z,84.45
2017-01-26T03:59:34.910Z,84.45
2017-01-26T04:00:15.438Z,84.54
2017-01-26T04:00:55.957Z,84.35
2017-01-26T04:01:36.495Z,84.54
2017-01-26T04:02:17.013Z,84.35
2017-01-26T04:02:57.539Z,84.73
2017-01-26T04:03:38.070Z,84.54
2017-01-26T04:04:18.592Z,84.64
2017-01-26T04:04:59.113Z,84.54
2017-01-26T04:05:39.660Z,84.64
2017-01-26T04:06:20.186Z,84.35
2017-01-26T04:07:00.711Z,84.73
2017-01-26T04:07:41.246Z,84.82
2017-01-26T04:08:21.772Z,84.82
2017-01-26T04:09:02.309Z,84.73
2017-01-26T04:09:42.880Z,84.3
2017-01-26T04:10:23.414Z,84.35
2017-01-26T04:11:03.930Z,84.26
2017-01-26T04:11:44.462Z,84.64
2017-01-26T04:12:25.012Z,84.68
2017-01-26T04:13:05.544Z,84.73
2017-01-26T04:13:46.073Z,84.26
2017-01-26T04:14:26.608Z,84.26
2017-01-26T04:15:07.134Z,84.26
2017-01-26T04:15:47.672Z,84.39
2017-01-26T04:16:28.205Z,84.35
2017-01-26T04:17:08.741Z,84.64
2017-01-26T04:17:49.250Z,84.26
2017-01-26T04:18:29.785Z,84.35
2017-01-26T04:19:10.314Z,84.54
2017-01-26T04:19:50.846Z,84.54
2017-01-26T04:20:31.374Z,84.54
2017-01-26T04:21:11.900Z,84.16
2017-01-26T04:21:52.465Z,84.26
2017-01-26T04:22:32.994Z,84.54
2017-01-26T04:23:13.521Z,84.26
2017-01-26T04:23:54.057Z,84.64
2017-01-26T04:24:34.593Z,84.64
2017-01-26T04:25:15.108Z,84.35
2017-01-26T04:25:55.639Z,84.73
2017-01-26T04:26:36.165Z,84.73
2017-01-26T04:27:16.683Z,84.82
2017-01-26T04:27:57.211Z,84.73
2017-01-26T04:28:37.744Z,84.82
2017-01-26T04:29:18.250Z,84.82
2017-01-26T04:29:58.778Z,84.82
2017-01-26T04:30:39.312Z,84.73
2017-01-26T04:31:19.834Z,84.64
2017-01-26T04:32:00.362Z,84.64
2017-01-26T04:32:40.880Z,84.26
2017-01-26T04:33:21.421Z,84.73
2017-01-26T04:34:01.939Z,84.73
2017-01-26T04:34:42.463Z,84.82
2017-01-26T04:35:22.997Z,84.82
2017-01-26T04:36:03.510Z,84.45
2017-01-26T04:36:44.041Z,84.82
2017-01-26T04:37:24.608Z,84.45
2017-01-26T04:38:05.138Z,84.35
2017-01-26T04:38:45.668Z,84.73
2017-01-26T04:39:26.200Z,84.64
2017-01-26T04:40:06.741Z,84.49
2017-01-26T04:40:47.248Z,84.35
2017-01-26T04:41:27.778Z,84.45
2017-01-26T04:42:08.324Z,84.82
2017-01-26T04:42:48.828Z,84.82
2017-01-26T04:43:29.377Z,84.73
2017-01-26T04:44:09.899Z,84.45
2017-01-26T04:44:50.428Z,84.35
2017-01-26T04:45:30.947Z,84.73
2017-01-26T04:46:11.472Z,84.82
2017-01-26T04:46:52.005Z,84.82
2017-01-26T04:47:32.535Z,84.64
2017-01-26T04:48:13.067Z,84.82
2017-01-26T04:48:53.595Z,84.73
2017-01-26T04:49:34.152Z,84.73
2017-01-26T04:50:14.666Z,84.82
2017-01-26T04:50:55.211Z,84.77
2017-01-26T04:51:35.754Z,84.73
2017-01-26T04:52:16.259Z,84.82
2017-01-26T04:52:56.795Z,84.82
2017-01-26T04:53:37.291Z,84.82
2017-01-26T04:54:17.824Z,84.26
2017-01-26T04:54:58.360Z,84.54
2017-01-26T04:55:38.890Z,83.97
2017-01-26T04:56:19.421Z,84.35
2017-01-26T04:56:59.956Z,84.35
2017-01-26T04:57:40.487Z,83.69
2017-01-26T04:58:21.016Z,84.54
2017-01-26T04:59:01.577Z,84.54
2017-01-26T04:59:42.099Z,84.26
2017-01-26T05:00:22.643Z,83.69
2017-01-26T05:01:03.173Z,83.97
2017-01-26T05:01:43.708Z,83.97
2017-01-26T05:02:24.243Z,84.54
2017-01-26T05:03:04.765Z,83.73
2017-01-26T05:03:45.321Z,83.97
2017-01-26T05:04:25.863Z,84.39
2017-01-26T05:05:06.394Z,83.97
2017-01-26T05:05:46.920Z,83.92
2017-01-26T05:06:27.457Z,83.92
2017-01-26T05:07:07.984Z,84.01
2017-01-26T05:07:48.506Z,83.88
2017-01-26T05:08:29.035Z,84.07
2017-01-26T05:09:09.566Z,83.97
2017-01-26T05:09:50.097Z,84.07
2017-01-26T05:10:30.631Z,83.97
2017-01-26T05:11:11.160Z,84.11
2017-01-26T05:11:51.692Z,84.11
2017-01-26T05:12:32.219Z,84.01
2017-01-26T05:13:12.737Z,84.16
2017-01-26T05:13:53.272Z,84.3
2017-01-26T05:14:33.811Z,84.3
2017-01-26T05:15:14.344Z,84.2
2017-01-26T05:15:54.874Z,83.97
2017-01-26T05:16:35.412Z,83.45
2017-01-26T05:17:15.945Z,83.54
2017-01-26T05:17:56.470Z,83.64
2017-01-26T05:18:36.987Z,83.83
2017-01-26T05:19:17.517Z,83.54
2017-01-26T05:19:58.073Z,83.73
2017-01-26T05:20:38.565Z,83.64
2017-01-26T05:21:19.091Z,83.54
2017-01-26T05:21:59.622Z,83.73
2017-01-26T05:22:40.156Z,83.83
2017-01-26T05:23:20.692Z,83.69
2017-01-26T05:24:01.243Z,83.83
2017-01-26T05:24:41.766Z,83.54
2017-01-26T05:25:22.293Z,83.78
2017-01-26T05:26:02.828Z,83.73
2017-01-26T05:26:43.358Z,83.83
2017-01-26T05:27:23.881Z,83.54
2017-01-26T05:28:04.438Z,83.78
2017-01-26T05:28:44.980Z,83.73
2017-01-26T05:29:25.502Z,83.69
2017-01-26T05:30:06.029Z,83.83
2017-01-26T05:30:46.561Z,83.78
2017-01-26T05:31:27.093Z,83.83
2017-01-26T05:32:07.615Z,83.73
2017-01-26T05:32:48.133Z,83.83
2017-01-26T05:33:28.649Z,83.45
2017-01-26T05:34:09.166Z,84.01
2017-01-26T05:34:49.696Z,83.45
2017-01-26T05:35:30.228Z,83.83
2017-01-26T05:36:10.757Z,83.54
2017-01-26T05:36:51.282Z,84.01
2017-01-26T05:37:31.800Z,83.83
2017-01-26T05:38:12.370Z,83.83
2017-01-26T05:38:52.879Z,83.83
2017-01-26T05:39:33.401Z,83.73
2017-01-26T05:40:13.911Z,83.83
2017-01-26T05:40:54.440Z,83.73
2017-01-26T05:41:34.956Z,83.73
2017-01-26T05:42:15.476Z,83.64
2017-01-26T05:42:56.007Z,83.78
2017-01-26T05:43:36.532Z,83.54
2017-01-26T05:44:17.037Z,83.73
2017-01-26T05:44:57.605Z,83.64
2017-01-26T05:45:38.112Z,83.83
2017-01-26T05:46:18.648Z,83.64
2017-01-26T05:46:59.166Z,83.73
2017-01-26T05:47:39.698Z,83.83
2017-01-26T05:48:20.221Z,83.73
2017-01-26T05:49:00.750Z,83.64
2017-01-26T05:49:41.290Z,83.64
2017-01-26T05:50:21.823Z,83.73
2017-01-26T05:51:02.356Z,83.83
2017-01-26T05:51:42.881Z,83.83
2017-01-26T05:52:23.395Z,83.64
2017-01-26T05:53:03.935Z,83.73
2017-01-26T05:53:44.446Z,83.54
2017-01-26T05:54:24.997Z,83.73
2017-01-26T05:55:05.520Z,83.73
2017-01-26T05:55:46.045Z,83.54
2017-01-26T05:56:26.584Z,83.54
2017-01-26T05:57:07.139Z,83.59
2017-01-26T05:57:47.645Z,83.54
2017-01-26T05:58:28.157Z,83.97
2017-01-26T05:59:08.704Z,83.45
2017-01-26T05:59:49.230Z,83.45
2017-01-26T06:00:29.770Z,83.64
2017-01-26T06:01:10.353Z,83.59
2017-01-26T06:01:50.877Z,83.45
2017-01-26T06:02:31.407Z,83.64
2017-01-26T06:03:11.931Z,83.78
2017-01-26T06:03:52.460Z,83.45
2017-01-26T06:04:33.016Z,83.4
2017-01-26T06:05:13.540Z,83.5
2017-01-26T06:05:54.070Z,83.5
2017-01-26T06:06:34.603Z,83.92
2017-01-26T06:07:15.121Z,83.64
2017-01-26T06:07:55.647Z,83.54
2017-01-26T06:08:36.174Z,83.5
2017-01-26T06:09:16.711Z,83.45
2017-01-26T06:09:57.237Z,83.54
2017-01-26T06:10:37.767Z,83.64
2017-01-26T06:11:18.292Z,83.73
2017-01-26T06:11:58.820Z,83.73
2017-01-26T06:12:39.350Z,83.83
2017-01-26T06:13:19.882Z,83.83
2017-01-26T06:14:00.412Z,83.83
2017-01-26T06:14:40.946Z,84.01
2017-01-26T06:15:21.480Z,83.83
2017-01-26T06:16:02.010Z,83.54
2017-01-26T06:16:42.538Z,83.45
2017-01-26T06:17:23.050Z,83.64
2017-01-26T06:18:03.575Z,83.64
2017-01-26T06:18:44.109Z,83.73
2017-01-26T06:19:24.639Z,83.45
2017-01-26T06:20:05.147Z,83.64
2017-01-26T06:20:45.685Z,83.54
2017-01-26T06:21:26.207Z,83.64
2017-01-26T06:22:06.771Z,83.64
2017-01-26T06:22:47.301Z,83.45
2017-01-26T06:23:27.823Z,83.54
2017-01-26T06:24:08.360Z,84.01
2017-01-26T06:24:48.893Z,84.01
2017-01-26T06:25:29.422Z,83.54
2017-01-26T06:26:09.948Z,83.54
2017-01-26T06:26:50.482Z,83.73
2017-01-26T06:27:31.025Z,83.73
2017-01-26T06:28:11.557Z,83.54
2017-01-26T06:28:52.091Z,83.45
2017-01-26T06:29:32.620Z,83.54
2017-01-26T06:30:13.136Z,83.45
2017-01-26T06:30:53.677Z,83.54
2017-01-26T06:31:34.216Z,83.36
2017-01-26T06:32:14.733Z,83.64
2017-01-26T06:32:55.267Z,83.36
2017-01-26T06:33:35.805Z,83.26
2017-01-26T06:34:16.330Z,83.26
2017-01-26T06:34:56.860Z,83.26
2017-01-26T06:35:37.392Z,83.54
2017-01-26T06:36:17.908Z,83.54
2017-01-26T06:36:58.431Z,83.07
2017-01-26T06:37:38.953Z,83.54
2017-01-26T06:38:19.472Z,83.36
2017-01-26T06:39:00.001Z,83.07
2017-01-26T06:39:40.533Z,83.36
2017-01-26T06:40:21.065Z,83.45
2017-01-26T06:42:15.110Z,83.36
2017-01-26T06:42:55.632Z,83.64
2017-01-26T06:43:36.168Z,83.54
2017-01-26T06:44:16.675Z,83.54
2017-01-26T06:44:57.217Z,83.45
2017-01-26T06:45:37.750Z,83.36
2017-01-26T06:46:18.281Z,83.17
2017-01-26T06:46:58.807Z,83.17
2017-01-26T06:47:39.367Z,83.17
2017-01-26T06:48:19.900Z,83.17
2017-01-26T06:49:00.435Z,83.36
2017-01-26T06:49:40.973Z,83.54
2017-01-26T06:50:21.516Z,83.54
2017-01-26T06:51:02.055Z,83.54
2017-01-26T06:51:42.550Z,83.26
2017-01-26T06:52:23.079Z,83.36
2017-01-26T06:53:03.606Z,83.26
2017-01-26T06:53:44.147Z,83.26
2017-01-26T06:54:24.654Z,83.36
2017-01-26T06:55:05.176Z,83.36
2017-01-26T06:55:45.708Z,83.26
2017-01-26T06:56:26.234Z,83.26
2017-01-26T06:57:06.772Z,83.54
2017-01-26T06:57:47.289Z,83.26
2017-01-26T06:58:27.821Z,83.36
2017-01-26T06:59:08.350Z,83.64
2017-01-26T06:59:48.890Z,83.26
2017-01-26T07:00:29.415Z,83.36
2017-01-26T07:01:09.948Z,83.26
2017-01-26T07:01:50.471Z,83.54
2017-01-26T07:02:31.005Z,83.4
2017-01-26T07:03:11.539Z,83.64
2017-01-26T07:03:52.071Z,83.64
2017-01-26T07:04:32.603Z,83.64
2017-01-26T07:05:13.117Z,83.78
2017-01-26T07:05:53.640Z,83.45
2017-01-26T07:06:34.169Z,83.73
2017-01-26T07:07:14.700Z,83.73
2017-01-26T07:07:55.220Z,83.64
2017-01-26T07:08:35.753Z,83.73
2017-01-26T07:09:16.269Z,83.36
2017-01-26T07:09:56.788Z,83.73
2017-01-26T07:10:37.299Z,83.73
2017-01-26T07:11:17.819Z,83.64
2017-01-26T07:11:58.355Z,83.54
2017-01-26T07:12:38.889Z,83.26
2017-01-26T07:13:19.413Z,83.45
2017-01-26T07:13:59.943Z,83.26
2017-01-26T07:14:40.476Z,83.54
2017-01-26T07:15:21.005Z,83.54
2017-01-26T07:16:01.529Z,83.36
2017-01-26T07:16:42.068Z,83.54
2017-01-26T07:17:22.578Z,83.54
2017-01-26T07:18:03.103Z,83.54
2017-01-26T07:18:43.632Z,83.73
2017-01-26T07:19:24.174Z,83.73
2017-01-26T07:20:04.687Z,83.73
2017-01-26T07:20:45.218Z,83.36
2017-01-26T07:21:25.749Z,83.73
2017-01-26T07:22:06.280Z,83.73
2017-01-26T07:22:46.806Z,83.36
2017-01-26T07:23:27.347Z,83.26
2017-01-26T07:24:07.878Z,83.54
2017-01-26T07:24:48.416Z,83.83
2017-01-26T07:25:28.947Z,83.54
2017-01-26T07:26:09.478Z,83.83
2017-01-26T07:26:50.003Z,83.83
2017-01-26T07:27:30.546Z,83.26
2017-01-26T07:28:11.058Z,83.45
2017-01-26T07:28:51.588Z,83.73
2017-01-26T07:29:32.123Z,83.45
2017-01-26T07:30:12.682Z,83.45
2017-01-26T07:30:53.283Z,83.54
2017-01-26T07:31:33.836Z,83.54
2017-01-26T07:32:14.368Z,83.54
2017-01-26T07:32:54.890Z,83.26
2017-01-26T07:33:35.425Z,83.26
2017-01-26T07:34:15.943Z,83.4
2017-01-26T07:34:56.470Z,83.36
2017-01-26T07:35:37.004Z,83.54
2017-01-26T07:36:17.650Z,83.73
2017-01-26T07:36:58.186Z,83.26
2017-01-26T07:37:38.801Z,83.64
2017-01-26T07:38:19.329Z,83.64
2017-01-26T07:38:59.871Z,83.64
2017-01-26T07:39:40.425Z,83.64
2017-01-26T07:40:21.057Z,83.54
2017-01-26T07:41:01.550Z,83.54
2017-01-26T07:41:42.076Z,83.36
2017-01-26T07:42:22.615Z,83.64
2017-01-26T07:43:03.155Z,83.73
2017-01-26T07:43:43.679Z,83.73
2017-01-26T07:44:24.210Z,83.73
2017-01-26T07:45:04.739Z,83.73
2017-01-26T07:45:45.283Z,83.64
2017-01-26T07:46:25.811Z,83.36
2017-01-26T07:47:06.345Z,83.36
2017-01-26T07:47:46.871Z,83.54
2017-01-26T07:48:27.393Z,83.26
2017-01-26T07:49:07.932Z,83.17
2017-01-26T07:49:48.472Z,83.45
2017-01-26T07:50:29.003Z,83.45
2017-01-26T07:51:09.538Z,83.26
2017-01-26T07:51:50.062Z,83.36
2017-01-26T07:52:30.600Z,83.36
2017-01-26T07:53:11.129Z,83.54
2017-01-26T07:53:51.661Z,83.45
2017-01-26T07:54:32.191Z,83.45
2017-01-26T07:55:12.714Z,83.26
2017-01-26T07:55:53.256Z,83.36
2017-01-26T07:56:33.793Z,83.26
2017-01-26T07:57:14.329Z,83.54
2017-01-26T07:57:54.862Z,83.54
2017-01-26T07:58:35.385Z,83.07
2017-01-26T07:59:15.918Z,83.17
2017-01-26T07:59:56.452Z,83.17
2017-01-26T08:00:36.986Z,83.36
2017-01-26T08:01:17.520Z,83.45
2017-01-26T08:01:58.058Z,83.36
2017-01-26T08:02:38.594Z,83.36
2017-01-26T08:03:19.161Z,83.17
2017-01-26T08:03:59.685Z,83.36
2017-01-26T08:04:40.218Z,83.36
2017-01-26T08:05:20.742Z,82.98
2017-01-26T08:06:01.296Z,83.07
2017-01-26T08:06:41.849Z,83.26
2017-01-26T08:07:22.405Z,83.17
2017-01-26T08:08:02.916Z,83.26
2017-01-26T08:08:43.442Z,83.17
2017-01-26T08:09:23.971Z,83.07
2017-01-26T08:10:06.348Z,83.07
2017-01-26T08:10:46.877Z,83.45
2017-01-26T08:11:27.412Z,82.69
2017-01-26T08:12:07.940Z,82.6
2017-01-26T08:12:48.470Z,82.79
2017-01-26T08:13:28.993Z,82.88
2017-01-26T08:14:09.528Z,82.88
2017-01-26T08:14:50.062Z,82.88
2017-01-26T08:15:30.588Z,82.69
2017-01-26T08:16:11.113Z,82.88
2017-01-26T08:16:51.632Z,82.5
2017-01-26T08:17:32.165Z,82.5
2017-01-26T08:18:12.690Z,82.88
2017-01-26T08:18:53.217Z,82.98
2017-01-26T08:19:33.743Z,82.31
2017-01-26T08:20:14.282Z,82.31
2017-01-26T08:20:54.814Z,82.5
2017-01-26T08:21:35.338Z,82.6
2017-01-26T08:22:15.869Z,82.31
2017-01-26T08:22:56.395Z,82.22
2017-01-26T08:23:36.936Z,82.22
2017-01-26T08:24:17.474Z,82.79
2017-01-26T08:24:58.013Z,82.5
2017-01-26T08:25:38.541Z,82.12
2017-01-26T08:26:19.069Z,82.31
2017-01-26T08:26:59.596Z,82.5
2017-01-26T08:27:40.131Z,82.31
2017-01-26T08:28:20.661Z,82.41
2017-01-26T08:29:01.195Z,82.31
2017-01-26T08:29:41.739Z,82.5
2017-01-26T08:30:22.261Z,82.41
2017-01-26T08:31:02.803Z,82.41
2017-01-26T08:31:43.332Z,81.65
2017-01-26T08:32:23.864Z,81.93
2017-01-26T08:33:04.393Z,82.12
2017-01-26T08:33:44.927Z,81.84
2017-01-26T08:34:25.460Z,81.93
2017-01-26T08:35:05.989Z,81.65
2017-01-26T08:35:46.518Z,81.65
2017-01-26T08:36:27.046Z,81.84
2017-01-26T08:37:07.562Z,81.84
2017-01-26T08:37:48.093Z,82.03
2017-01-26T08:38:28.625Z,81.74
2017-01-26T08:39:09.151Z,81.84
2017-01-26T08:39:49.686Z,81.93
2017-01-26T08:40:30.209Z,81.93
2017-01-26T08:41:10.740Z,82.12
2017-01-26T08:41:51.272Z,81.09
2017-01-26T08:42:31.826Z,81.74
2017-01-26T08:43:12.353Z,81.74
2017-01-26T08:43:52.881Z,81.65
2017-01-26T08:44:33.415Z,81.93
2017-01-26T08:45:13.943Z,81.93
2017-01-26T08:45:54.471Z,81.37
2017-01-26T08:46:35.001Z,81.65
2017-01-26T08:47:15.536Z,81.65
2017-01-26T08:47:56.054Z,81.65
2017-01-26T08:48:36.588Z,81.56
2017-01-26T08:49:17.151Z,81.37
2017-01-26T08:49:57.684Z,81.27
2017-01-26T08:50:38.215Z,81.46
2017-01-26T08:51:18.745Z,81.09
2017-01-26T08:51:59.268Z,80.99
2017-01-26T08:52:39.812Z,80.71
2017-01-26T08:53:20.350Z,80.52
2017-01-26T08:54:00.883Z,80.9
2017-01-26T08:54:41.420Z,80.99
2017-01-26T08:55:21.938Z,80.94
2017-01-26T08:56:02.472Z,80.71
2017-01-26T08:56:43.040Z,80.27
2017-01-26T08:57:23.570Z,80.56
2017-01-26T08:58:04.101Z,80.08
2017-01-26T08:58:44.633Z,80.37
2017-01-26T08:59:25.162Z,80.37
2017-01-26T09:00:05.699Z,79.9
2017-01-26T09:00:46.231Z,79.99
2017-01-26T09:01:26.778Z,80.08
2017-01-26T09:02:07.283Z,80.08
2017-01-26T09:02:47.812Z,79.9
2017-01-26T09:03:28.342Z,79.8
2017-01-26T09:04:08.878Z,79.61
2017-01-26T09:04:49.404Z,79.61
2017-01-26T09:05:29.933Z,79.61
2017-01-26T09:06:10.464Z,79.43
2017-01-26T09:06:50.981Z,79.24
2017-01-26T09:07:31.512Z,78.86
2017-01-26T09:08:12.037Z,78.29
2017-01-26T09:08:52.568Z,78.67
2017-01-26T09:09:33.096Z,78.67
2017-01-26T09:10:13.623Z,78.29
2017-01-26T09:10:54.171Z,78.39
2017-01-26T09:11:34.714Z,78.23
2017-01-26T09:12:15.248Z,77.39
2017-01-26T09:12:55.772Z,77.39
2017-01-26T09:13:36.299Z,76.82
2017-01-26T09:14:16.828Z,76.63
2017-01-26T09:14:57.364Z,76.15
2017-01-26T09:15:37.877Z,76.29
2017-01-26T09:16:18.414Z,75.72
2017-01-26T09:16:58.928Z,75.62
2017-01-26T09:17:39.456Z,74.4